Time;durP1;ratioP1;P1;durP2;ratioP2;P2;SDS_P1;SDS_P2;PMS_P1;PMS_P2;Temp;Humidity;BMP_temperature;BMP_pressure;BME280_temperature;BME280_humidity;BME280_pressure;Samples;Min_cycle;Max_cycle;Signal;HPM_P1;HPM_P2
2022/07/28 00:00:03;;;;;;;1.70;1.50;;;;;;;21.17;38.97;99926.09;4982941;28;20502;-82
2022/07/28 00:02:35;;;;;;;4.38;1.95;;;;;;;21.20;38.92;99931.09;4976654;28;20101;-82
2022/07/28 00:05:02;;;;;;;7.78;1.58;;;;;;;21.17;38.94;99931.50;4998317;28;20078;-83
2022/07/28 00:07:29;;;;;;;3.17;1.50;;;;;;;21.05;38.80;99922.31;4954312;28;20062;-82
2022/07/28 00:09:56;;;;;;;3.50;1.33;;;;;;;21.15;39.05;99928.16;4950240;28;20050;-83
2022/07/28 00:12:26;;;;;;;6.20;1.88;;;;;;;21.17;39.29;99924.22;4997270;28;20398;-83
2022/07/28 00:14:53;;;;;;;4.57;1.77;;;;;;;21.16;38.92;99924.44;4997638;28;20050;-82
2022/07/28 00:17:20;;;;;;;4.15;1.60;;;;;;;21.08;38.93;99927.31;4983975;28;20072;-82
2022/07/28 00:19:46;;;;;;;3.35;1.70;;;;;;;21.11;38.80;99924.19;4973808;28;20513;-82
2022/07/28 00:22:16;;;;;;;4.32;1.60;;;;;;;21.10;39.16;99917.16;4989833;28;20041;-82
2022/07/28 00:24:42;;;;;;;5.68;1.63;;;;;;;21.11;38.86;99919.63;4996118;28;20076;-82
2022/07/28 00:27:09;;;;;;;4.05;1.70;;;;;;;21.12;39.18;99917.78;4980403;28;20402;-83
2022/07/28 00:29:42;;;;;;;4.70;1.70;;;;;;;20.97;39.09;99910.66;4982761;28;20407;-82
2022/07/28 00:32:17;;;;;;;6.18;2.00;;;;;;;21.14;38.74;99904.88;4959552;28;20526;-82
2022/07/28 00:34:44;;;;;;;6.90;1.83;;;;;;;20.85;39.47;99914.97;4967614;28;20050;-83
2022/07/28 00:37:10;;;;;;;10.43;2.08;;;;;;;20.94;39.03;99912.91;4983854;28;20050;-82
2022/07/28 00:39:45;;;;;;;5.03;1.48;;;;;;;20.86;39.29;99907.69;4980193;28;20042;-82
2022/07/28 00:42:16;;;;;;;6.07;1.80;;;;;;;20.79;39.24;99905.81;4982776;28;20414;-85
2022/07/28 00:44:43;;;;;;;7.07;1.60;;;;;;;20.88;39.29;99906.44;4985128;28;20041;-85
2022/07/28 00:47:10;;;;;;;5.38;1.60;;;;;;;20.84;39.38;99905.22;4981476;28;20050;-82
2022/07/28 00:49:37;;;;;;;4.40;1.50;;;;;;;20.78;39.48;99904.13;4965210;28;20096;-82
2022/07/28 00:52:08;;;;;;;3.17;1.40;;;;;;;20.74;39.35;99900.19;4966447;28;20039;-83
2022/07/28 00:54:34;;;;;;;4.95;1.70;;;;;;;20.84;39.55;99898.94;4962571;28;20050;-82
2022/07/28 00:57:01;;;;;;;4.30;1.42;;;;;;;20.76;39.49;99902.66;4976854;28;20039;-82
2022/07/28 00:59:28;;;;;;;4.70;1.40;;;;;;;20.76;39.63;99906.22;4981544;28;20050;-83
2022/07/28 01:01:58;;;;;;;4.72;1.88;;;;;;;20.83;39.55;99906.22;4999411;28;20214;-83
2022/07/28 01:04:25;;;;;;;6.22;1.92;;;;;;;20.87;39.29;99899.41;4995691;28;20569;-83
2022/07/28 01:07:17;;;;;;;7.38;1.48;;;;;;;20.57;39.84;99891.56;5010670;28;20055;-82
2022/07/28 01:09:50;;;;;;;5.05;1.70;;;;;;;20.64;39.72;99896.19;4963748;28;20046;-83
2022/07/28 01:12:37;;;;;;;3.85;1.45;;;;;;;20.57;39.80;99899.66;4998499;28;20046;-83
2022/07/28 01:15:41;;;;;;;4.60;1.33;;;;;;;20.51;40.22;99891.53;4997006;28;20482;-83
2022/07/28 01:18:16;;;;;;;4.00;1.40;;;;;;;20.66;39.92;99899.50;4986015;28;20050;-83
2022/07/28 01:20:46;;;;;;;3.63;1.50;;;;;;;20.78;39.73;99896.03;4986322;28;20064;-83
2022/07/28 01:23:31;;;;;;;4.63;1.40;;;;;;;20.63;40.11;99889.09;4998846;28;20042;-83
2022/07/28 01:26:51;;;;;;;4.28;1.42;;;;;;;20.50;40.08;99892.53;4999653;28;20042;-83
2022/07/28 01:30:09;;;;;;;1.85;1.23;;;;;;;20.44;40.11;99883.38;4943198;28;20511;-83
2022/07/28 01:32:40;;;;;;;3.78;1.52;;;;;;;20.66;39.81;99878.75;4883739;28;20047;-83
2022/07/28 01:35:15;;;;;;;2.92;1.23;;;;;;;20.53;40.13;99876.81;4997723;28;20375;-83
2022/07/28 01:37:47;;;;;;;3.88;1.33;;;;;;;20.46;40.00;99885.88;4970046;28;20560;-85
2022/07/28 01:40:20;;;;;;;3.67;1.67;;;;;;;20.55;40.18;99898.19;4960766;28;20096;-86
2022/07/28 01:42:51;;;;;;;4.20;2.03;;;;;;;20.49;40.05;99893.56;4968761;28;20449;-84
2022/07/28 01:45:18;;;;;;;3.10;1.45;;;;;;;20.71;39.80;99884.41;5018216;28;20050;-82
2022/07/28 01:47:48;;;;;;;6.47;1.70;;;;;;;20.65;39.97;99889.75;4984905;28;20050;-82
2022/07/28 01:50:19;;;;;;;4.80;1.50;;;;;;;20.61;39.90;99886.63;4968463;28;20051;-82
2022/07/28 01:52:47;;;;;;;4.07;1.50;;;;;;;20.68;39.90;99886.63;4978652;28;20073;-82
2022/07/28 01:55:16;;;;;;;6.35;2.25;;;;;;;20.53;40.12;99893.00;4981908;28;20046;-85
2022/07/28 01:57:43;;;;;;;4.80;1.38;;;;;;;20.49;40.15;99880.91;4952798;28;20042;-85
2022/07/28 02:00:11;;;;;;;7.00;1.42;;;;;;;20.62;39.70;99880.19;5001620;28;20050;-85
2022/07/28 02:02:39;;;;;;;12.75;1.52;;;;;;;20.48;40.23;99878.41;4980965;28;20455;-82
2022/07/28 02:05:11;;;;;;;3.95;1.63;;;;;;;20.43;40.26;99879.03;4999183;28;20054;-83
2022/07/28 02:07:39;;;;;;;4.63;1.63;;;;;;;20.52;40.14;99874.28;4966174;28;20113;-85
2022/07/28 02:10:06;;;;;;;2.17;1.40;;;;;;;20.26;40.54;99877.69;4967838;28;20082;-85
2022/07/28 02:12:34;;;;;;;2.67;1.50;;;;;;;20.52;40.06;99864.31;4958392;28;20050;-85
2022/07/28 02:15:01;;;;;;;4.38;1.40;;;;;;;20.36;40.19;99864.66;4986352;28;20050;-86
2022/07/28 02:18:20;;;;;;;1.63;1.35;;;;;;;20.23;40.63;99867.28;5018005;28;20062;-85
2022/07/28 02:20:48;;;;;;;6.00;1.55;;;;;;;20.39;40.21;99857.00;4978583;28;20038;-85
2022/07/28 02:23:15;;;;;;;3.67;1.50;;;;;;;20.36;40.32;99853.88;4981379;28;20055;-85
2022/07/28 02:25:42;;;;;;;3.45;1.30;;;;;;;20.39;40.27;99857.00;4987090;28;20057;-85
2022/07/28 02:28:10;;;;;;;5.70;1.58;;;;;;;20.36;40.22;99849.31;4985421;28;20051;-83
2022/07/28 02:30:42;;;;;;;6.47;1.77;;;;;;;20.19;40.66;99852.53;4965178;28;20514;-82
2022/07/28 02:33:16;;;;;;;;;;;;;;;19.93;41.03;99852.16;4964874;28;20100;-82
2022/07/28 02:36:12;;;;;;;4.22;1.40;;;;;;;20.22;40.61;99847.56;4942064;28;20297;-83
2022/07/28 02:38:44;;;;;;;3.90;1.50;;;;;;;20.34;40.72;99845.16;5012817;28;20046;-82
2022/07/28 02:41:16;;;;;;;1.80;1.60;;;;;;;20.30;40.38;99841.19;4968923;28;20054;-83
2022/07/28 02:43:50;;;;;;;3.78;1.42;;;;;;;20.18;40.77;99851.69;5017624;28;20042;-82
2022/07/28 02:46:19;;;;;;;4.63;1.67;;;;;;;20.25;40.45;99849.03;5014534;28;20053;-82
2022/07/28 02:48:49;;;;;;;3.45;1.50;;;;;;;20.28;40.69;99845.97;4980576;28;20038;-83
2022/07/28 02:51:17;;;;;;;3.47;1.40;;;;;;;20.30;40.61;99839.34;4997407;28;20046;-82
2022/07/28 02:53:45;;;;;;;5.80;1.50;;;;;;;20.29;40.58;99844.91;4979629;28;20042;-83
2022/07/28 02:56:11;;;;;;;3.10;1.40;;;;;;;20.33;40.41;99838.94;4980631;28;20062;-82
2022/07/28 02:58:39;;;;;;;5.20;1.98;;;;;;;20.34;40.67;99839.75;4997911;28;20572;-83
2022/07/28 03:01:07;;;;;;;3.90;1.58;;;;;;;20.32;40.48;99845.34;4978059;28;20054;-82
2022/07/28 03:03:34;;;;;;;4.85;1.70;;;;;;;20.38;40.34;99846.44;4947965;28;20046;-82
2022/07/28 03:06:01;;;;;;;5.32;2.10;;;;;;;20.32;40.25;99845.34;4929917;28;20112;-82
2022/07/28 03:08:28;;;;;;;4.47;1.48;;;;;;;20.33;40.48;99844.31;4986948;28;20057;-82
2022/07/28 03:11:12;;;;;;;3.20;1.65;;;;;;;20.01;41.00;99847.66;4971089;28;20517;-83
2022/07/28 03:13:43;;;;;;;4.68;1.70;;;;;;;20.22;40.61;99849.44;4980833;28;20045;-82
2022/07/28 03:16:10;;;;;;;2.38;1.30;;;;;;;20.19;40.81;99850.66;4997281;28;20039;-83
2022/07/28 03:18:36;;;;;;;3.88;1.80;;;;;;;20.21;40.97;99850.47;4998400;28;20053;-82
2022/07/28 03:21:03;;;;;;;5.40;1.30;;;;;;;20.23;40.59;99851.94;4968505;28;20077;-83
2022/07/28 03:23:36;;;;;;;5.80;1.40;;;;;;;20.20;40.73;99860.44;4949201;28;20046;-82
2022/07/28 03:26:08;;;;;;;3.78;1.33;;;;;;;20.08;40.78;99859.31;4967664;28;20054;-85
2022/07/28 03:28:36;;;;;;;4.57;1.30;;;;;;;20.17;40.62;99861.66;5001237;28;20050;-85
2022/07/28 03:31:06;;;;;;;3.22;1.45;;;;;;;20.10;40.68;99863.47;4957094;28;20049;-85
2022/07/28 03:33:33;;;;;;;1.33;1.17;;;;;;;20.02;40.86;99858.22;4950120;28;20064;-84
2022/07/28 03:36:05;;;;;;;4.85;1.50;;;;;;;20.01;40.56;99853.03;4950790;28;20047;-85
2022/07/28 03:38:36;;;;;;;6.13;1.75;;;;;;;19.90;40.88;99849.03;4963920;28;20056;-88
2022/07/28 03:41:05;;;;;;;5.15;1.75;;;;;;;19.99;40.67;99845.13;4963578;28;20047;-89
2022/07/28 03:43:31;;;;;;;4.60;1.55;;;;;;;19.95;40.98;99850.09;5001393;28;20050;-87
2022/07/28 03:45:58;;;;;;;3.60;1.48;;;;;;;20.07;40.65;99854.94;4985981;28;20096;-88
2022/07/28 03:48:29;;;;;;;2.35;1.58;;;;;;;19.95;41.01;99852.78;4967662;28;20508;-89
2022/07/28 03:50:56;;;;;;;5.00;1.55;;;;;;;19.87;41.04;99855.63;4992402;28;20053;-88
2022/07/28 03:53:27;;;;;;;7.75;1.52;;;;;;;19.83;40.94;99853.53;4968648;28;20042;-84
2022/07/28 03:55:54;;;;;;;8.23;1.63;;;;;;;19.94;41.27;99858.38;4980482;28;20054;-84
2022/07/28 03:58:50;;;;;;;3.45;1.30;;;;;;;19.78;41.22;99864.88;5001194;28;20058;-85
2022/07/28 04:01:17;;;;;;;3.30;1.40;;;;;;;19.92;40.84;99860.41;4949398;28;20140;-84
2022/07/28 04:03:44;;;;;;;4.18;1.45;;;;;;;19.90;41.16;99852.53;4958006;28;20046;-84
2022/07/28 04:06:13;;;;;;;5.15;1.58;;;;;;;19.87;41.43;99852.09;4951847;28;20054;-84
2022/07/28 04:08:42;;;;;;;5.15;1.25;;;;;;;19.97;40.99;99863.34;5000843;28;20395;-88
2022/07/28 04:11:09;;;;;;;4.65;1.58;;;;;;;19.98;41.26;99858.81;4968745;28;20047;-88
2022/07/28 04:13:36;;;;;;;5.03;1.50;;;;;;;19.96;41.19;99853.63;4983936;28;20403;-84
2022/07/28 04:16:04;;;;;;;5.93;1.50;;;;;;;19.92;41.17;99860.41;4953300;28;20185;-84
2022/07/28 04:18:31;;;;;;;8.70;1.60;;;;;;;19.91;41.22;99854.19;4996160;28;20054;-85
2022/07/28 04:20:58;;;;;;;10.90;2.00;;;;;;;19.86;41.17;99855.81;4998218;28;20058;-84
2022/07/28 04:23:24;;;;;;;2.67;1.48;;;;;;;19.77;41.47;99855.16;4981537;28;20459;-84
2022/07/28 04:25:51;;;;;;;5.13;1.80;;;;;;;19.78;41.31;99859.50;4971166;28;20393;-84
2022/07/28 04:28:18;;;;;;;3.65;1.70;;;;;;;19.84;41.44;99860.56;4983867;28;20141;-86
2022/07/28 04:30:45;;;;;;;7.10;1.60;;;;;;;19.91;41.58;99862.28;4978755;28;20515;-86
2022/07/28 04:33:12;;;;;;;3.95;1.70;;;;;;;19.78;41.27;99856.78;4983201;28;20089;-87
2022/07/28 04:35:38;;;;;;;3.58;1.58;;;;;;;19.80;41.47;99862.00;4983119;28;20051;-86
2022/07/28 04:38:06;;;;;;;4.68;1.80;;;;;;;19.86;41.28;99853.94;4943771;28;20383;-87
2022/07/28 04:40:33;;;;;;;5.55;1.90;;;;;;;19.77;41.54;99851.59;4993368;28;20053;-87
2022/07/28 04:43:00;;;;;;;3.78;1.80;;;;;;;19.77;41.59;99855.16;4967178;28;20054;-86
2022/07/28 04:45:27;;;;;;;4.63;1.92;;;;;;;19.84;41.40;99855.19;4967578;28;20046;-86
2022/07/28 04:47:53;;;;;;;3.67;1.50;;;;;;;19.87;41.38;99852.09;4978843;28;20096;-86
2022/07/28 04:51:14;;;;;;;5.88;1.75;;;;;;;19.76;41.60;99849.94;4998636;28;20049;-84
2022/07/28 04:53:41;;;;;;;4.13;1.98;;;;;;;20.04;41.37;99853.47;4959062;28;20953;-84
2022/07/28 04:56:07;;;;;;;5.03;1.70;;;;;;;20.17;40.96;99856.28;4965218;28;20043;-84
2022/07/28 04:58:34;;;;;;;5.88;2.03;;;;;;;20.14;41.29;99856.63;4962076;28;20046;-86
2022/07/28 05:01:06;;;;;;;5.03;1.67;;;;;;;19.88;41.55;99860.00;4948062;28;20073;-84
2022/07/28 05:03:33;;;;;;;6.63;1.70;;;;;;;20.03;41.66;99859.06;4948491;28;20076;-84
2022/07/28 05:06:02;;;;;;;5.55;1.80;;;;;;;19.91;41.56;99859.59;4965534;28;20101;-84
2022/07/28 05:08:28;;;;;;;4.57;1.35;;;;;;;19.86;41.36;99855.81;4946190;28;20527;-85
2022/07/28 05:10:57;;;;;;;4.78;1.73;;;;;;;19.82;41.45;99854.53;4968730;28;20525;-85
2022/07/28 05:13:24;;;;;;;2.03;1.67;;;;;;;19.93;41.65;99854.00;4981016;28;20050;-86
2022/07/28 05:15:59;;;;;;;5.30;1.60;;;;;;;20.18;41.46;99862.50;4931652;28;20410;-86
2022/07/28 05:18:26;;;;;;;7.25;2.00;;;;;;;20.11;42.08;99864.31;4943881;28;20054;-86
2022/07/28 05:20:52;;;;;;;4.68;1.65;;;;;;;20.12;41.73;99863.25;4978864;28;20042;-87
2022/07/28 05:23:19;;;;;;;6.38;1.90;;;;;;;20.15;41.43;99858.31;4982246;28;20058;-86
2022/07/28 05:25:46;;;;;;;5.97;1.60;;;;;;;20.02;41.72;99862.78;4965582;28;20053;-86
2022/07/28 05:28:12;;;;;;;7.70;2.33;;;;;;;19.99;41.86;99861.31;4963909;28;20054;-86
2022/07/28 05:30:39;;;;;;;6.32;2.08;;;;;;;20.04;42.08;99869.63;4976875;28;20050;-86
2022/07/28 05:33:06;;;;;;;3.60;2.00;;;;;;;19.83;42.27;99864.31;4985371;28;20046;-85
2022/07/28 05:35:32;;;;;;;10.05;2.35;;;;;;;19.68;42.57;99867.91;4983883;28;20050;-90
2022/07/28 05:37:59;;;;;;;5.05;2.03;;;;;;;19.66;42.82;99864.53;4970133;28;20046;-88
2022/07/28 05:40:26;;;;;;;4.45;1.77;;;;;;;19.72;42.89;99862.97;4981358;28;20050;-88
2022/07/28 05:42:53;;;;;;;3.90;1.77;;;;;;;19.86;42.66;99863.91;4984316;28;20039;-89
2022/07/28 05:45:20;;;;;;;9.23;2.20;;;;;;;19.91;42.68;99866.84;4968064;28;20080;-88
2022/07/28 05:47:50;;;;;;;4.97;1.90;;;;;;;19.81;42.78;99861.78;4981734;28;20394;-87
2022/07/28 05:50:20;;;;;;;6.30;2.10;;;;;;;19.94;42.63;99864.56;4996337;28;20034;-87
2022/07/28 05:52:47;;;;;;;4.70;1.75;;;;;;;19.97;42.72;99868.75;4981974;28;20046;-86
2022/07/28 05:55:15;;;;;;;7.10;2.10;;;;;;;20.01;43.35;99863.81;4976144;28;20039;-86
2022/07/28 05:57:41;;;;;;;7.43;2.08;;;;;;;19.98;42.85;99862.34;4979119;28;20041;-86
2022/07/28 06:00:13;;;;;;;8.82;2.05;;;;;;;20.02;43.15;99870.84;4973164;28;20050;-86
2022/07/28 06:02:41;;;;;;;6.63;2.33;;;;;;;20.08;43.16;99872.78;4977041;28;20046;-86
2022/07/28 06:05:08;;;;;;;10.32;2.38;;;;;;;20.06;42.83;99862.19;4981655;28;20054;-85
2022/07/28 06:07:35;;;;;;;9.88;2.25;;;;;;;20.03;43.04;99862.59;4970894;28;20605;-86
2022/07/28 06:10:17;;;;;;;7.53;2.08;;;;;;;20.07;43.81;99863.00;4985028;28;20052;-87
2022/07/28 06:12:47;;;;;;;5.80;1.88;;;;;;;20.05;43.71;99868.63;4943094;28;20050;-86
2022/07/28 06:15:25;;;;;;;22.15;4.70;;;;;;;20.08;43.70;99856.63;4968529;28;20073;-86
2022/07/28 06:17:54;;;;;;;4.30;2.10;;;;;;;20.20;43.58;99862.28;4985068;28;20437;-85
2022/07/28 06:20:22;;;;;;;8.52;2.50;;;;;;;20.42;43.34;99863.88;4997609;28;20490;-84
2022/07/28 06:22:51;;;;;;;7.55;1.92;;;;;;;20.48;43.23;99870.31;4979958;28;20487;-84
2022/07/28 06:25:22;;;;;;;7.60;2.55;;;;;;;20.46;43.50;99877.81;4986801;28;20387;-86
2022/07/28 06:27:51;;;;;;;9.90;2.40;;;;;;;20.57;43.31;99880.78;4986077;28;20047;-85
2022/07/28 06:30:18;;;;;;;5.90;2.47;;;;;;;20.68;43.41;99870.44;4960772;28;20057;-85
2022/07/28 06:32:45;;;;;;;5.10;2.22;;;;;;;20.53;43.26;99882.19;4983868;28;20491;-85
2022/07/28 06:35:15;;;;;;;8.77;2.30;;;;;;;20.53;42.99;99862.47;4986141;28;20500;-84
2022/07/28 06:37:46;;;;;;;5.90;2.10;;;;;;;20.59;44.00;99869.81;4988571;28;20049;-85
2022/07/28 06:40:14;;;;;;;8.90;2.50;;;;;;;20.56;43.87;99875.59;4969612;28;20410;-85
2022/07/28 06:42:41;;;;;;;7.30;2.95;;;;;;;20.54;43.93;99864.13;5001099;28;20046;-85
2022/07/28 06:45:09;;;;;;;6.63;2.13;;;;;;;20.67;43.50;99864.22;4985033;28;20440;-85
2022/07/28 06:47:46;;;;;;;4.68;2.40;;;;;;;20.63;43.94;99862.13;4976398;28;20402;-88
2022/07/28 06:50:13;;;;;;;9.52;2.20;;;;;;;20.62;44.03;99863.16;5001436;28;20046;-88
2022/07/28 06:52:56;;;;;;;8.18;3.20;;;;;;;20.62;43.97;99865.88;4969949;28;20065;-89
2022/07/28 06:55:25;;;;;;;4.82;2.60;;;;;;;20.64;44.11;99861.13;4984833;28;20386;-88
2022/07/28 06:58:00;;;;;;;4.00;2.70;;;;;;;20.81;44.04;99859.72;4963857;28;20058;-86
2022/07/28 07:00:27;;;;;;;6.20;2.55;;;;;;;20.88;43.59;99851.66;5000417;28;20046;-86
2022/07/28 07:02:53;;;;;;;3.63;1.90;;;;;;;20.93;43.60;99850.00;4995588;28;20045;-86
2022/07/28 07:09:27;;;;;;;12.75;3.15;;;;;;;21.06;44.25;99859.16;4926729;28;20028;-86
2022/07/28 07:11:54;;;;;;;5.30;2.65;;;;;;;21.03;44.40;99849.63;4983009;28;20440;-88
2022/07/28 07:14:25;;;;;;;4.90;2.70;;;;;;;20.94;44.48;99861.63;4980560;28;20054;-84
2022/07/28 07:16:53;;;;;;;5.90;3.20;;;;;;;20.96;44.02;99849.63;5001274;28;20386;-85
2022/07/28 07:19:20;;;;;;;9.45;2.85;;;;;;;21.04;44.22;99856.69;4994251;28;20050;-85
2022/07/28 07:21:47;;;;;;;6.68;2.85;;;;;;;21.11;43.94;99854.00;4953086;28;20049;-85
2022/07/28 07:24:14;;;;;;;7.18;3.10;;;;;;;21.18;43.82;99847.56;4948836;28;20065;-85
2022/07/28 07:26:41;;;;;;;7.82;3.10;;;;;;;21.23;44.14;99847.78;4982818;28;20046;-86
2022/07/28 07:29:09;;;;;;;6.95;2.83;;;;;;;21.33;43.71;99846.56;4979865;28;20073;-87
2022/07/28 07:31:37;;;;;;;6.13;2.85;;;;;;;21.24;44.88;99848.63;4984130;28;20049;-86
2022/07/28 07:34:05;;;;;;;8.68;3.10;;;;;;;21.23;44.13;99852.38;4981655;28;20573;-86
2022/07/28 07:36:32;;;;;;;6.28;3.15;;;;;;;21.32;44.00;99825.97;4965634;28;20046;-87
2022/07/28 07:38:58;;;;;;;7.72;3.03;;;;;;;21.28;44.24;99833.69;4983692;28;20940;-86
2022/07/28 07:41:30;;;;;;;7.60;3.17;;;;;;;21.22;44.83;99832.63;4995667;28;20048;-86
2022/07/28 07:43:57;;;;;;;7.03;3.63;;;;;;;21.27;44.21;99829.31;4983529;28;20030;-86
2022/07/28 07:46:24;;;;;;;6.85;3.13;;;;;;;21.40;44.32;99820.44;4983063;28;20093;-86
2022/07/28 07:48:51;;;;;;;10.15;3.28;;;;;;;21.46;44.65;99827.69;4971863;28;20061;-87
2022/07/28 07:51:17;;;;;;;8.27;3.50;;;;;;;21.49;44.68;99827.28;5000498;28;20045;-87
2022/07/28 07:53:44;;;;;;;12.57;3.33;;;;;;;21.42;44.62;99827.28;4994084;28;20554;-85
2022/07/28 07:56:13;;;;;;;7.43;3.85;;;;;;;21.37;44.42;99823.50;4966986;28;20438;-85
2022/07/28 07:58:39;;;;;;;7.47;4.35;;;;;;;21.46;44.55;99830.41;4968761;28;20050;-84
2022/07/28 08:01:06;;;;;;;10.98;4.47;;;;;;;21.42;44.68;99826.44;4968897;28;20039;-85
2022/07/28 08:03:33;;;;;;;8.23;4.40;;;;;;;21.44;45.07;99821.66;4985022;28;20069;-85
2022/07/28 08:06:01;;;;;;;9.25;4.00;;;;;;;21.59;44.91;99818.78;4982372;28;20101;-88
2022/07/28 08:08:27;;;;;;;9.02;4.18;;;;;;;21.63;44.54;99818.16;4978834;28;20053;-88
2022/07/28 08:10:54;;;;;;;6.28;3.92;;;;;;;21.77;44.88;99824.38;4977713;28;20430;-88
2022/07/28 08:13:22;;;;;;;10.70;4.28;;;;;;;21.84;44.98;99810.84;4972205;28;20050;-88
2022/07/28 08:15:49;;;;;;;12.43;4.72;;;;;;;21.98;45.04;99809.81;4954987;28;20557;-88
2022/07/28 08:18:16;;;;;;;10.82;4.50;;;;;;;22.07;45.23;99824.75;4971472;28;20038;-86
2022/07/28 08:20:43;;;;;;;8.32;4.65;;;;;;;22.04;44.75;99814.34;4956870;28;20042;-87
2022/07/28 08:23:09;;;;;;;7.13;4.78;;;;;;;22.00;44.93;99825.81;4994123;28;20050;-86
2022/07/28 08:25:37;;;;;;;9.65;4.45;;;;;;;22.02;45.24;99810.22;4981156;28;20050;-86
2022/07/28 08:28:04;;;;;;;10.13;4.82;;;;;;;21.99;45.65;99808.75;4984418;28;20492;-86
2022/07/28 08:30:30;;;;;;;11.18;5.30;;;;;;;22.05;45.93;99805.19;4963627;28;20050;-86
2022/07/28 08:32:59;;;;;;;9.85;4.72;;;;;;;22.16;46.76;99806.44;4951048;28;20042;-87
2022/07/28 08:35:26;;;;;;;8.60;5.15;;;;;;;22.28;45.96;99806.63;4984262;28;20042;-85
2022/07/28 08:38:00;;;;;;;11.88;5.03;;;;;;;22.36;45.70;99806.38;4990969;28;20494;-85
2022/07/28 08:40:27;;;;;;;7.97;5.00;;;;;;;22.44;45.76;99797.19;4984179;28;20054;-85
2022/07/28 08:43:20;;;;;;;9.05;5.03;;;;;;;22.44;45.23;99810.72;4994382;28;20057;-88
2022/07/28 08:45:48;;;;;;;9.88;5.43;;;;;;;22.44;45.55;99799.91;4948509;28;20046;-88
2022/07/28 08:48:20;;;;;;;12.02;5.95;;;;;;;22.46;45.42;99793.22;4978202;28;20109;-88
2022/07/28 08:50:48;;;;;;;7.40;4.90;;;;;;;22.45;45.34;99788.88;4967075;28;20367;-88
2022/07/28 08:53:18;;;;;;;12.82;5.65;;;;;;;22.47;46.01;99807.63;4943350;28;20049;-87
2022/07/28 08:55:46;;;;;;;6.32;5.05;;;;;;;22.48;45.62;99801.97;5001523;28;20048;-88
2022/07/28 08:58:15;;;;;;;6.38;4.65;;;;;;;22.56;46.05;99787.38;4983167;28;20414;-88
2022/07/28 09:00:42;;;;;;;10.30;5.18;;;;;;;22.64;45.94;99789.00;4983156;28;20050;-88
2022/07/28 09:03:10;;;;;;;6.53;5.03;;;;;;;22.61;45.89;99792.97;4985126;28;20478;-89
2022/07/28 09:05:40;;;;;;;11.10;5.63;;;;;;;22.68;45.51;99799.19;4950664;28;20370;-89
2022/07/28 09:08:07;;;;;;;7.05;5.50;;;;;;;22.69;44.87;99792.72;4983381;28;20474;-85
2022/07/28 09:10:34;;;;;;;7.60;4.53;;;;;;;22.71;45.29;99785.22;4983211;28;20046;-85
2022/07/28 09:13:01;;;;;;;9.35;4.63;;;;;;;22.81;45.33;99792.03;4965347;28;20050;-85
2022/07/28 09:15:31;;;;;;;9.60;4.70;;;;;;;22.81;44.72;99786.63;4976838;28;21002;-86
2022/07/28 09:17:58;;;;;;;7.43;5.38;;;;;;;22.84;45.01;99781.59;4981054;28;20192;-87
2022/07/28 09:20:25;;;;;;;7.05;4.85;;;;;;;22.86;44.69;99789.53;4978004;28;20054;-87
2022/07/28 09:23:03;;;;;;;18.38;5.57;;;;;;;22.76;44.44;99788.09;4968076;28;20046;-87
2022/07/28 09:25:50;;;;;;;12.23;5.22;;;;;;;22.84;44.84;99783.47;4941112;28;20556;-85
2022/07/28 09:28:17;;;;;;;9.93;5.43;;;;;;;22.90;44.71;99778.03;4998836;28;20046;-85
2022/07/28 09:30:48;;;;;;;11.88;4.72;;;;;;;22.93;44.89;99774.06;4966771;28;20061;-87
2022/07/28 09:33:26;;;;;;;7.18;5.03;;;;;;;22.95;44.23;99775.50;4995579;28;20076;-88
2022/07/28 09:36:14;;;;;;;7.72;4.55;;;;;;;23.01;45.04;99781.13;4934957;28;20074;-88
2022/07/28 09:38:41;;;;;;;8.23;4.95;;;;;;;23.04;44.35;99761.72;4988396;28;20498;-88
2022/07/28 09:41:08;;;;;;;7.65;4.80;;;;;;;23.12;44.52;99772.28;4955100;28;20386;-89
2022/07/28 09:43:37;;;;;;;9.63;4.95;;;;;;;23.22;44.49;99767.22;4985773;28;20042;-87
2022/07/28 09:46:18;;;;;;;7.65;4.82;;;;;;;23.19;44.47;99773.91;5001983;28;20046;-86
2022/07/28 09:48:48;;;;;;;8.60;5.03;;;;;;;23.31;44.06;99759.66;4962867;28;20046;-85
2022/07/28 09:51:18;;;;;;;5.90;4.60;;;;;;;23.32;44.31;99755.91;5017935;28;20070;-86
2022/07/28 09:53:45;;;;;;;9.18;5.53;;;;;;;23.41;44.25;99749.16;4997336;28;20050;-85
2022/07/28 09:56:12;;;;;;;8.05;4.55;;;;;;;23.39;44.16;99756.69;4986342;28;20042;-84
2022/07/28 09:58:39;;;;;;;8.77;4.80;;;;;;;23.38;43.61;99755.00;4997429;28;20035;-86
2022/07/28 10:01:11;;;;;;;10.25;4.75;;;;;;;23.39;43.74;99743.94;4967719;28;20039;-86
2022/07/28 10:03:41;;;;;;;9.50;5.25;;;;;;;23.40;43.73;99739.34;5001453;28;20050;-85
2022/07/28 10:06:14;;;;;;;7.13;4.47;;;;;;;23.40;44.14;99729.34;4966493;28;20047;-86
2022/07/28 10:08:42;;;;;;;6.28;4.40;;;;;;;23.49;43.97;99743.44;4949658;28;20089;-86
2022/07/28 10:11:10;;;;;;;9.02;4.90;;;;;;;23.55;43.96;99739.00;4971369;28;20046;-85
2022/07/28 10:14:05;;;;;;;11.52;5.20;;;;;;;23.54;43.63;99726.53;4966606;28;20047;-86
2022/07/28 10:16:34;;;;;;;7.30;4.28;;;;;;;23.65;43.45;99724.94;4975124;28;20078;-86
2022/07/28 10:19:04;;;;;;;6.32;4.38;;;;;;;23.67;41.60;99720.97;4944151;28;20090;-86
2022/07/28 10:21:33;;;;;;;8.60;4.82;;;;;;;23.70;42.70;99733.25;5000545;28;20046;-86
2022/07/28 10:24:05;;;;;;;6.55;4.97;;;;;;;23.71;42.61;99722.19;4968115;28;20038;-85
2022/07/28 10:26:38;;;;;;;8.45;4.75;;;;;;;23.69;42.72;99726.19;4980037;28;20039;-85
2022/07/28 10:29:08;;;;;;;8.38;5.00;;;;;;;23.73;42.17;99722.81;4988546;28;20513;-86
2022/07/28 10:31:42;;;;;;;7.57;4.57;;;;;;;23.73;42.45;99717.38;5002106;28;20101;-85
2022/07/28 10:34:22;;;;;;;7.97;4.65;;;;;;;23.76;42.72;99714.25;4979449;28;20046;-85
2022/07/28 10:36:54;;;;;;;12.13;5.38;;;;;;;23.80;41.94;99714.59;4964623;28;20050;-86
2022/07/28 10:39:23;;;;;;;8.75;5.13;;;;;;;23.81;41.84;99714.41;4935374;28;20402;-86
2022/07/28 10:41:50;;;;;;;12.00;5.13;;;;;;;23.83;42.53;99706.84;4948003;28;20051;-85
2022/07/28 10:44:18;;;;;;;9.15;4.93;;;;;;;23.90;41.95;99711.38;4960013;28;20066;-86
2022/07/28 10:46:45;;;;;;;9.07;5.47;;;;;;;24.01;41.60;99727.69;4942889;28;20455;-85
2022/07/28 10:49:14;;;;;;;8.43;5.15;;;;;;;23.98;41.79;99706.47;4951315;28;20042;-86
2022/07/28 10:51:45;;;;;;;11.90;5.90;;;;;;;24.07;41.86;99700.72;4958433;28;20053;-86
2022/07/28 10:54:37;;;;;;;8.55;5.38;;;;;;;24.12;41.52;99712.56;4976372;28;20133;-85
2022/07/28 10:57:10;;;;;;;9.45;4.72;;;;;;;24.20;41.81;99697.88;4992541;28;20054;-86
2022/07/28 11:00:05;;;;;;;11.88;5.97;;;;;;;24.21;41.40;99702.22;4959693;28;20051;-85
2022/07/28 11:02:49;;;;;;;8.90;5.07;;;;;;;24.29;41.98;99698.38;4977189;28;20046;-87
2022/07/28 11:05:26;;;;;;;9.45;5.60;;;;;;;24.30;41.47;99684.59;4993788;28;20510;-87
2022/07/28 11:07:53;;;;;;;10.30;5.20;;;;;;;24.46;41.40;99724.69;4984306;28;20053;-85
2022/07/28 11:10:21;;;;;;;8.70;5.50;;;;;;;24.44;41.02;99683.34;4987977;28;20064;-86
2022/07/28 11:12:53;;;;;;;7.65;5.10;;;;;;;24.45;40.85;99676.91;4983480;28;20051;-86
2022/07/28 11:15:34;;;;;;;8.60;4.88;;;;;;;24.47;41.43;99687.50;5014359;28;20617;-85
2022/07/28 11:18:02;;;;;;;7.30;4.97;;;;;;;24.61;40.42;99709.88;4957607;28;20043;-85
2022/07/28 11:20:57;;;;;;;10.68;5.40;;;;;;;24.53;40.29;99683.06;4934748;28;20061;-86
2022/07/28 11:23:35;;;;;;;9.95;5.22;;;;;;;24.59;40.28;99674.81;4934067;28;20120;-85
2022/07/28 11:26:20;;;;;;;9.60;5.28;;;;;;;24.61;40.00;99671.88;4943804;28;20963;-86
2022/07/28 11:28:56;;;;;;;6.65;5.10;;;;;;;24.67;40.87;99663.59;5002997;28;20058;-86
2022/07/28 11:31:47;;;;;;;7.13;4.60;;;;;;;24.75;40.64;99675.19;4971321;28;20058;-87
2022/07/28 11:34:19;;;;;;;10.13;5.05;;;;;;;24.85;40.66;99664.59;4944611;28;20042;-86
2022/07/28 11:37:02;;;;;;;6.38;5.38;;;;;;;24.83;40.37;99648.56;4999585;28;20498;-86
2022/07/28 11:39:36;;;;;;;7.03;5.68;;;;;;;24.91;40.61;99644.66;4945890;28;20042;-87
2022/07/28 11:42:29;;;;;;;17.85;5.45;;;;;;;24.87;39.87;99668.72;4994964;28;20042;-86
2022/07/28 11:45:23;;;;;;;9.68;5.47;;;;;;;24.81;39.88;99644.41;4969718;28;20096;-86
2022/07/28 11:48:13;;;;;;;7.55;5.55;;;;;;;24.83;40.08;99659.41;4955915;28;20068;-88
2022/07/28 11:50:41;;;;;;;10.20;5.80;;;;;;;24.88;39.78;99670.41;4938720;28;20565;-88
2022/07/28 11:53:09;;;;;;;10.20;5.10;;;;;;;24.88;40.13;99655.97;5007261;28;20049;-88